sensor_id;sensor_type;location;lat;lon;timestamp;pressure;altitude;pressure_sealevel;temperature;humidity
12349;BME280;5974;42.710;27.258;2023-02-04T00:02:05;100115.84;;;-0.34;100.00
12349;BME280;5974;42.710;27.258;2023-02-04T00:04:34;100125.31;;;-0.23;100.00
12349;BME280;5974;42.710;27.258;2023-02-04T00:07:00;100108.22;;;-0.10;100.00
12349;BME280;5974;42.710;27.258;2023-02-04T00:09:28;100100.47;;;-0.19;100.00
12349;BME280;5974;42.710;27.258;2023-02-04T00:11:54;100102.19;;;-0.18;100.00
12349;BME280;5974;42.710;27.258;2023-02-04T00:14:21;100100.44;;;-0.40;100.00
12349;BME280;5974;42.710;27.258;2023-02-04T00:16:48;100098.78;;;-0.05;100.00
12349;BME280;5974;42.710;27.258;2023-02-04T00:19:15;100092.81;;;0.11;100.00
12349;BME280;5974;42.710;27.258;2023-02-04T00:21:43;100099.69;;;0.24;100.00
12349;BME280;5974;42.710;27.258;2023-02-04T00:24:10;100091.03;;;-0.23;100.00
12349;BME280;5974;42.710;27.258;2023-02-04T00:26:37;100082.53;;;0.22;100.00
12349;BME280;5974;42.710;27.258;2023-02-04T00:29:03;100057.69;;;0.25;100.00
12349;BME280;5974;42.710;27.258;2023-02-04T00:31:30;100076.53;;;0.00;100.00
12349;BME280;5974;42.710;27.258;2023-02-04T00:33:57;100081.41;;;-0.85;100.00
12349;BME280;5974;42.710;27.258;2023-02-04T00:36:24;100094.94;;;-1.16;100.00
12349;BME280;5974;42.710;27.258;2023-02-04T00:38:52;100091.84;;;-0.36;100.00
12349;BME280;5974;42.710;27.258;2023-02-04T00:41:19;100088.53;;;0.25;100.00
12349;BME280;5974;42.710;27.258;2023-02-04T00:43:46;100087.66;;;-0.06;100.00
12349;BME280;5974;42.710;27.258;2023-02-04T00:46:13;100085.72;;;-0.81;100.00
12349;BME280;5974;42.710;27.258;2023-02-04T00:48:40;100085.72;;;-0.81;100.00
12349;BME280;5974;42.710;27.258;2023-02-04T00:51:06;100085.97;;;0.06;100.00
12349;BME280;5974;42.710;27.258;2023-02-04T00:53:33;100085.97;;;0.18;100.00
12349;BME280;5974;42.710;27.258;2023-02-04T00:56:01;100077.38;;;0.22;100.00
12349;BME280;5974;42.710;27.258;2023-02-04T00:58:28;100073.88;;;0.89;100.00
12349;BME280;5974;42.710;27.258;2023-02-04T01:00:55;100073.88;;;1.03;100.00
12349;BME280;5974;42.710;27.258;2023-02-04T01:03:22;100067.97;;;-0.02;100.00
12349;BME280;5974;42.710;27.258;2023-02-04T01:05:49;100079.03;;;-0.36;100.00
12349;BME280;5974;42.710;27.258;2023-02-04T01:08:16;100079.94;;;-0.07;100.00
12349;BME280;5974;42.710;27.258;2023-02-04T01:10:43;100081.69;;;0.61;100.00
12349;BME280;5974;42.710;27.258;2023-02-04T01:13:11;100078.25;;;0.43;100.00
12349;BME280;5974;42.710;27.258;2023-02-04T01:15:38;100077.41;;;0.55;100.00
12349;BME280;5974;42.710;27.258;2023-02-04T01:18:04;100075.53;;;1.19;100.00
12349;BME280;5974;42.710;27.258;2023-02-04T01:20:31;100071.25;;;1.12;100.00
12349;BME280;5974;42.710;27.258;2023-02-04T01:22:58;100065.94;;;1.51;100.00
12349;BME280;5974;42.710;27.258;2023-02-04T01:25:25;100068.41;;;1.71;100.00
12349;BME280;5974;42.710;27.258;2023-02-04T01:27:52;100067.13;;;0.55;100.00
12349;BME280;5974;42.710;27.258;2023-02-04T01:30:20;100067.09;;;0.28;100.00
12349;BME280;5974;42.710;27.258;2023-02-04T01:32:47;100068.84;;;0.21;100.00
12349;BME280;5974;42.710;27.258;2023-02-04T01:35:14;100060.28;;;0.18;100.00
12349;BME280;5974;42.710;27.258;2023-02-04T01:37:40;100038.84;;;0.23;100.00
12349;BME280;5974;42.710;27.258;2023-02-04T01:40:09;100043.94;;;0.73;100.00
12349;BME280;5974;42.710;27.258;2023-02-04T01:42:36;100041.16;;;1.32;100.00
12349;BME280;5974;42.710;27.258;2023-02-04T01:45:04;100043.53;;;1.67;100.00
12349;BME280;5974;42.710;27.258;2023-02-04T01:47:33;100032.25;;;1.86;100.00
12349;BME280;5974;42.710;27.258;2023-02-04T01:50:00;100024.50;;;1.89;100.00
12349;BME280;5974;42.710;27.258;2023-02-04T01:52:35;100029.63;;;1.92;100.00
12349;BME280;5974;42.710;27.258;2023-02-04T01:55:05;100012.41;;;1.96;100.00
12349;BME280;5974;42.710;27.258;2023-02-04T01:57:37;100011.66;;;1.80;100.00
12349;BME280;5974;42.710;27.258;2023-02-04T02:00:06;100003.88;;;1.85;100.00
12349;BME280;5974;42.710;27.258;2023-02-04T02:02:40;100008.25;;;1.77;100.00
12349;BME280;5974;42.710;27.258;2023-02-04T02:05:08;99991.22;;;1.56;100.00
12349;BME280;5974;42.710;27.258;2023-02-04T02:07:36;99987.84;;;1.49;100.00
12349;BME280;5974;42.710;27.258;2023-02-04T02:10:04;99986.41;;;0.86;100.00
12349;BME280;5974;42.710;27.258;2023-02-04T02:12:31;99981.34;;;0.68;100.00
12349;BME280;5974;42.710;27.258;2023-02-04T02:14:59;99977.03;;;0.75;100.00
12349;BME280;5974;42.710;27.258;2023-02-04T02:17:26;99976.09;;;1.01;100.00
12349;BME280;5974;42.710;27.258;2023-02-04T02:19:54;99963.28;;;0.85;100.00
12349;BME280;5974;42.710;27.258;2023-02-04T02:22:26;99959.00;;;0.81;100.00
12349;BME280;5974;42.710;27.258;2023-02-04T02:24:55;99954.69;;;0.84;100.00
12349;BME280;5974;42.710;27.258;2023-02-04T02:27:22;99960.66;;;0.89;100.00
12349;BME280;5974;42.710;27.258;2023-02-04T02:29:49;99955.63;;;0.70;100.00
12349;BME280;5974;42.710;27.258;2023-02-04T02:32:17;99952.16;;;0.78;100.00
12349;BME280;5974;42.710;27.258;2023-02-04T02:34:44;99957.28;;;0.83;100.00
12349;BME280;5974;42.710;27.258;2023-02-04T02:37:12;99959.06;;;0.66;100.00
12349;BME280;5974;42.710;27.258;2023-02-04T02:39:39;99957.31;;;0.78;100.00
12349;BME280;5974;42.710;27.258;2023-02-04T02:42:10;99966.63;;;0.99;100.00
12349;BME280;5974;42.710;27.258;2023-02-04T02:44:39;99954.56;;;1.16;100.00
12349;BME280;5974;42.710;27.258;2023-02-04T02:47:11;99954.19;;;1.72;100.00
12349;BME280;5974;42.710;27.258;2023-02-04T02:49:39;99947.53;;;1.41;100.00
12349;BME280;5974;42.710;27.258;2023-02-04T02:52:10;99938.03;;;1.53;100.00
12349;BME280;5974;42.710;27.258;2023-02-04T02:54:38;99941.94;;;2.00;100.00
12349;BME280;5974;42.710;27.258;2023-02-04T02:57:12;99938.81;;;1.61;100.00
12349;BME280;5974;42.710;27.258;2023-02-04T02:59:39;99936.06;;;1.83;100.00
12349;BME280;5974;42.710;27.258;2023-02-04T03:02:08;99931.06;;;1.66;100.00
12349;BME280;5974;42.710;27.258;2023-02-04T03:04:39;99931.97;;;1.57;100.00
12349;BME280;5974;42.710;27.258;2023-02-04T03:07:07;99923.94;;;1.91;100.00
12349;BME280;5974;42.710;27.258;2023-02-04T03:09:35;99918.44;;;2.29;100.00
12349;BME280;5974;42.710;27.258;2023-02-04T03:12:02;99909.06;;;2.18;100.00
12349;BME280;5974;42.710;27.258;2023-02-04T03:14:32;99908.22;;;2.21;100.00
12349;BME280;5974;42.710;27.258;2023-02-04T03:17:00;99902.69;;;2.53;100.00
12349;BME280;5974;42.710;27.258;2023-02-04T03:19:28;99892.50;;;2.41;100.00
12349;BME280;5974;42.710;27.258;2023-02-04T03:21:55;99887.34;;;2.42;100.00
12349;BME280;5974;42.710;27.258;2023-02-04T03:24:23;99885.59;;;2.44;100.00
12349;BME280;5974;42.710;27.258;2023-02-04T03:26:50;99880.25;;;3.20;100.00
12349;BME280;5974;42.710;27.258;2023-02-04T03:29:17;99882.47;;;2.88;100.00
12349;BME280;5974;42.710;27.258;2023-02-04T03:31:46;99868.16;;;2.63;100.00
12349;BME280;5974;42.710;27.258;2023-02-04T03:34:13;99857.28;;;2.40;100.00
12349;BME280;5974;42.710;27.258;2023-02-04T03:36:39;99848.00;;;2.24;100.00
12349;BME280;5974;42.710;27.258;2023-02-04T03:39:06;99853.28;;;2.14;100.00
12349;BME280;5974;42.710;27.258;2023-02-04T03:41:33;99852.09;;;2.41;100.00
12349;BME280;5974;42.710;27.258;2023-02-04T03:44:00;99838.56;;;2.23;100.00
12349;BME280;5974;42.710;27.258;2023-02-04T03:46:27;99848.56;;;2.48;100.00
12349;BME280;5974;42.710;27.258;2023-02-04T03:48:55;99845.84;;;2.60;100.00
12349;BME280;5974;42.710;27.258;2023-02-04T03:51:22;99839.88;;;2.55;100.00
12349;BME280;5974;42.710;27.258;2023-02-04T03:53:48;99840.22;;;2.28;100.00
12349;BME280;5974;42.710;27.258;2023-02-04T03:56:15;99809.50;;;2.07;100.00
12349;BME280;5974;42.710;27.258;2023-02-04T03:58:42;99813.59;;;2.92;100.00
12349;BME280;5974;42.710;27.258;2023-02-04T04:01:09;99834.19;;;2.29;100.00
12349;BME280;5974;42.710;27.258;2023-02-04T04:03:36;99823.09;;;2.23;100.00
12349;BME280;5974;42.710;27.258;2023-02-04T04:06:04;99819.75;;;2.13;100.00
12349;BME280;5974;42.710;27.258;2023-02-04T04:08:34;99822.59;;;2.62;100.00
12349;BME280;5974;42.710;27.258;2023-02-04T04:11:01;99817.09;;;2.19;100.00
12349;BME280;5974;42.710;27.258;2023-02-04T04:13:28;99820.91;;;2.59;100.00
12349;BME280;5974;42.710;27.258;2023-02-04T04:15:54;99811.06;;;2.22;100.00
12349;BME280;5974;42.710;27.258;2023-02-04T04:18:21;99810.25;;;2.84;100.00
12349;BME280;5974;42.710;27.258;2023-02-04T04:20:48;99814.22;;;3.07;100.00
12349;BME280;5974;42.710;27.258;2023-02-04T04:23:16;99819.22;;;2.55;100.00
12349;BME280;5974;42.710;27.258;2023-02-04T04:25:43;99811.06;;;2.23;100.00
12349;BME280;5974;42.710;27.258;2023-02-04T04:28:10;99822.63;;;2.60;100.00
12349;BME280;5974;42.710;27.258;2023-02-04T04:30:37;99826.03;;;2.62;100.00
12349;BME280;5974;42.710;27.258;2023-02-04T04:33:04;99822.25;;;2.21;100.00
12349;BME280;5974;42.710;27.258;2023-02-04T04:35:31;99818.19;;;2.03;100.00
12349;BME280;5974;42.710;27.258;2023-02-04T04:37:59;99827.81;;;2.57;100.00
12349;BME280;5974;42.710;27.258;2023-02-04T04:40:27;99829.22;;;2.81;100.00
12349;BME280;5974;42.710;27.258;2023-02-04T04:42:54;99828.97;;;2.98;100.00
12349;BME280;5974;42.710;27.258;2023-02-04T04:45:21;99813.03;;;2.70;100.00
12349;BME280;5974;42.710;27.258;2023-02-04T04:47:48;99814.91;;;2.57;100.00
12349;BME280;5974;42.710;27.258;2023-02-04T04:50:15;99814.88;;;3.18;100.00
12349;BME280;5974;42.710;27.258;2023-02-04T04:52:42;99809.81;;;3.12;100.00
12349;BME280;5974;42.710;27.258;2023-02-04T04:55:09;99806.94;;;3.32;100.00
12349;BME280;5974;42.710;27.258;2023-02-04T04:57:37;99802.16;;;3.06;100.00
12349;BME280;5974;42.710;27.258;2023-02-04T05:00:06;99793.63;;;2.40;100.00
12349;BME280;5974;42.710;27.258;2023-02-04T05:02:33;99795.59;;;2.84;100.00
12349;BME280;5974;42.710;27.258;2023-02-04T05:05:00;99786.00;;;2.33;100.00
12349;BME280;5974;42.710;27.258;2023-02-04T05:07:27;99804.97;;;2.30;100.00
12349;BME280;5974;42.710;27.258;2023-02-04T05:09:54;99789.16;;;1.83;100.00
12349;BME280;5974;42.710;27.258;2023-02-04T05:12:20;99800.84;;;1.32;100.00
12349;BME280;5974;42.710;27.258;2023-02-04T05:14:49;99805.97;;;1.33;100.00
12349;BME280;5974;42.710;27.258;2023-02-04T05:17:15;99809.34;;;1.40;100.00
12349;BME280;5974;42.710;27.258;2023-02-04T05:19:42;99817.41;;;0.97;100.00
12349;BME280;5974;42.710;27.258;2023-02-04T05:22:09;99821.72;;;0.92;100.00
12349;BME280;5974;42.710;27.258;2023-02-04T05:24:36;99820.66;;;1.22;100.00
12349;BME280;5974;42.710;27.258;2023-02-04T05:27:03;99808.81;;;1.00;100.00
12349;BME280;5974;42.710;27.258;2023-02-04T05:29:30;99829.22;;;1.24;100.00
12349;BME280;5974;42.710;27.258;2023-02-04T05:31:58;99826.03;;;1.89;100.00
12349;BME280;5974;42.710;27.258;2023-02-04T05:34:25;99821.25;;;1.51;100.00
12349;BME280;5974;42.710;27.258;2023-02-04T05:36:53;99814.91;;;0.85;100.00
12349;BME280;5974;42.710;27.258;2023-02-04T05:39:20;99818.81;;;1.36;100.00
12349;BME280;5974;42.710;27.258;2023-02-04T05:41:47;99813.56;;;1.48;100.00
12349;BME280;5974;42.710;27.258;2023-02-04T05:44:14;99818.44;;;1.76;100.00
12349;BME280;5974;42.710;27.258;2023-02-04T05:46:40;99820.09;;;1.84;100.00
12349;BME280;5974;42.710;27.258;2023-02-04T05:49:09;99806.78;;;1.40;100.00
12349;BME280;5974;42.710;27.258;2023-02-04T05:51:36;99812.72;;;1.46;100.00
12349;BME280;5974;42.710;27.258;2023-02-04T05:54:03;99808.50;;;1.38;100.00
12349;BME280;5974;42.710;27.258;2023-02-04T05:56:30;99812.03;;;1.23;100.00
12349;BME280;5974;42.710;27.258;2023-02-04T05:58:57;99810.91;;;1.54;100.00
12349;BME280;5974;42.710;27.258;2023-02-04T06:01:24;99817.69;;;1.66;100.00
12349;BME280;5974;42.710;27.258;2023-02-04T06:03:50;99813.31;;;1.73;100.00
12349;BME280;5974;42.710;27.258;2023-02-04T06:06:18;99806.31;;;1.85;100.00
12349;BME280;5974;42.710;27.258;2023-02-04T06:08:45;99803.97;;;1.64;100.00
12349;BME280;5974;42.710;27.258;2023-02-04T06:11:12;99809.41;;;1.31;100.00
12349;BME280;5974;42.710;27.258;2023-02-04T06:13:39;99806.84;;;1.31;100.00
12349;BME280;5974;42.710;27.258;2023-02-04T06:16:06;99805.22;;;1.22;100.00
12349;BME280;5974;42.710;27.258;2023-02-04T06:18:33;99805.06;;;1.36;100.00
12349;BME280;5974;42.710;27.258;2023-02-04T06:21:00;99813.84;;;1.17;100.00
12349;BME280;5974;42.710;27.258;2023-02-04T06:23:30;99802.00;;;0.94;100.00
12349;BME280;5974;42.710;27.258;2023-02-04T06:25:58;99810.44;;;1.10;100.00
12349;BME280;5974;42.710;27.258;2023-02-04T06:28:25;99818.88;;;1.30;100.00
12349;BME280;5974;42.710;27.258;2023-02-04T06:30:52;99821.44;;;1.30;100.00
12349;BME280;5974;42.710;27.258;2023-02-04T06:33:19;99830.31;;;1.92;100.00
12349;BME280;5974;42.710;27.258;2023-02-04T06:35:48;99815.97;;;1.63;100.00
12349;BME280;5974;42.710;27.258;2023-02-04T06:38:15;99808.28;;;1.62;100.00
12349;BME280;5974;42.710;27.258;2023-02-04T06:40:44;99811.00;;;2.26;100.00
12349;BME280;5974;42.710;27.258;2023-02-04T06:43:13;99807.69;;;2.16;100.00
12349;BME280;5974;42.710;27.258;2023-02-04T06:45:40;99803.91;;;2.43;100.00
12349;BME280;5974;42.710;27.258;2023-02-04T06:48:07;99791.25;;;2.88;100.00
12349;BME280;5974;42.710;27.258;2023-02-04T06:50:34;99787.69;;;2.96;100.00
12349;BME280;5974;42.710;27.258;2023-02-04T06:53:00;99786.03;;;2.91;100.00
12349;BME280;5974;42.710;27.258;2023-02-04T06:55:27;99782.13;;;2.65;100.00
12349;BME280;5974;42.710;27.258;2023-02-04T06:57:55;99781.47;;;2.51;100.00
12349;BME280;5974;42.710;27.258;2023-02-04T07:00:22;99774.50;;;2.56;100.00
12349;BME280;5974;42.710;27.258;2023-02-04T07:02:49;99767.06;;;2.37;100.00
12349;BME280;5974;42.710;27.258;2023-02-04T07:05:17;99765.84;;;2.60;100.00
12349;BME280;5974;42.710;27.258;2023-02-04T07:07:44;99761.72;;;1.79;100.00
12349;BME280;5974;42.710;27.258;2023-02-04T07:10:10;99771.66;;;2.12;100.00
12349;BME280;5974;42.710;27.258;2023-02-04T07:12:37;99771.00;;;1.96;100.00
12349;BME280;5974;42.710;27.258;2023-02-04T07:15:06;99782.53;;;2.37;100.00
12349;BME280;5974;42.710;27.258;2023-02-04T07:17:33;99775.50;;;2.46;100.00
12349;BME280;5974;42.710;27.258;2023-02-04T07:20:00;99776.91;;;2.06;100.00
12349;BME280;5974;42.710;27.258;2023-02-04T07:22:27;99780.69;;;2.45;100.00
12349;BME280;5974;42.710;27.258;2023-02-04T07:24:54;99765.94;;;2.54;100.00
12349;BME280;5974;42.710;27.258;2023-02-04T07:27:20;99751.31;;;2.53;100.00
12349;BME280;5974;42.710;27.258;2023-02-04T07:29:47;99752.91;;;2.63;100.00
12349;BME280;5974;42.710;27.258;2023-02-04T07:32:15;99756.41;;;2.61;100.00
12349;BME280;5974;42.710;27.258;2023-02-04T07:34:42;99740.28;;;3.00;100.00
12349;BME280;5974;42.710;27.258;2023-02-04T07:37:09;99751.72;;;2.25;100.00
12349;BME280;5974;42.710;27.258;2023-02-04T07:39:36;99735.22;;;2.94;100.00
12349;BME280;5974;42.710;27.258;2023-02-04T07:42:03;99745.16;;;3.17;100.00
12349;BME280;5974;42.710;27.258;2023-02-04T07:44:29;99744.94;;;2.79;100.00
12349;BME280;5974;42.710;27.258;2023-02-04T07:46:56;99750.06;;;2.80;100.00
12349;BME280;5974;42.710;27.258;2023-02-04T07:49:24;99749.66;;;3.07;100.00
12349;BME280;5974;42.710;27.258;2023-02-04T07:51:53;99746.47;;;2.90;100.00
12349;BME280;5974;42.710;27.258;2023-02-04T07:54:19;99737.16;;;2.80;100.00
12349;BME280;5974;42.710;27.258;2023-02-04T07:56:46;99727.88;;;3.20;100.00
12349;BME280;5974;42.710;27.258;2023-02-04T07:59:13;99729.06;;;2.46;100.00
12349;BME280;5974;42.710;27.258;2023-02-04T08:01:40;99728.78;;;2.67;100.00
12349;BME280;5974;42.710;27.258;2023-02-04T08:04:07;99727.00;;;3.23;100.00
12349;BME280;5974;42.710;27.258;2023-02-04T08:06:35;99741.81;;;2.58;100.00
12349;BME280;5974;42.710;27.258;2023-02-04T08:09:02;99740.72;;;2.71;100.00
12349;BME280;5974;42.710;27.258;2023-02-04T08:11:28;99735.94;;;2.47;100.00
12349;BME280;5974;42.710;27.258;2023-02-04T08:13:55;99738.69;;;2.35;100.00
12349;BME280;5974;42.710;27.258;2023-02-04T08:16:22;99739.47;;;2.42;100.00
12349;BME280;5974;42.710;27.258;2023-02-04T08:18:49;99742.16;;;2.91;100.00
12349;BME280;5974;42.710;27.258;2023-02-04T08:21:16;99721.63;;;2.85;100.00
12349;BME280;5974;42.710;27.258;2023-02-04T08:23:44;99736.31;;;3.77;100.00
12349;BME280;5974;42.710;27.258;2023-02-04T08:26:11;99721.53;;;3.40;100.00
12349;BME280;5974;42.710;27.258;2023-02-04T08:28:38;99724.78;;;3.49;100.00
12349;BME280;5974;42.710;27.258;2023-02-04T08:31:05;99725.94;;;3.80;100.00
12349;BME280;5974;42.710;27.258;2023-02-04T08:33:36;99727.75;;;4.17;100.00
12349;BME280;5974;42.710;27.258;2023-02-04T08:36:03;99722.16;;;3.97;100.00
12349;BME280;5974;42.710;27.258;2023-02-04T08:38:30;99719.75;;;3.88;100.00
12349;BME280;5974;42.710;27.258;2023-02-04T08:40:59;99722.91;;;4.42;100.00
12349;BME280;5974;42.710;27.258;2023-02-04T08:43:26;99714.41;;;3.95;100.00
12349;BME280;5974;42.710;27.258;2023-02-04T08:45:52;99714.75;;;3.34;100.00
12349;BME280;5974;42.710;27.258;2023-02-04T08:48:19;99714.47;;;3.94;100.00
12349;BME280;5974;42.710;27.258;2023-02-04T08:50:46;99712.50;;;3.62;100.00
12349;BME280;5974;42.710;27.258;2023-02-04T08:53:13;99716.81;;;3.61;100.00
12349;BME280;5974;42.710;27.258;2023-02-04T08:55:40;99724.44;;;4.12;100.00
12349;BME280;5974;42.710;27.258;2023-02-04T08:58:08;99712.16;;;3.80;100.00
12349;BME280;5974;42.710;27.258;2023-02-04T09:00:35;99711.16;;;3.87;100.00
12349;BME280;5974;42.710;27.258;2023-02-04T09:03:01;99706.09;;;4.61;100.00
12349;BME280;5974;42.710;27.258;2023-02-04T09:05:29;99694.94;;;4.19;100.00
12349;BME280;5974;42.710;27.258;2023-02-04T09:07:56;99696.50;;;4.27;100.00
12349;BME280;5974;42.710;27.258;2023-02-04T09:10:22;99692.50;;;5.22;100.00
12349;BME280;5974;42.710;27.258;2023-02-04T09:12:49;99689.81;;;5.25;100.00
12349;BME280;5974;42.710;27.258;2023-02-04T09:15:22;99679.44;;;5.89;100.00
12349;BME280;5974;42.710;27.258;2023-02-04T09:17:49;99668.69;;;6.02;100.00
12349;BME280;5974;42.710;27.258;2023-02-04T09:20:18;99669.09;;;6.17;100.00
12349;BME280;5974;42.710;27.258;2023-02-04T09:22:45;99660.91;;;6.02;100.00
12349;BME280;5974;42.710;27.258;2023-02-04T09:25:12;99652.78;;;5.83;100.00
12349;BME280;5974;42.710;27.258;2023-02-04T09:27:39;99648.22;;;5.60;100.00
12349;BME280;5974;42.710;27.258;2023-02-04T09:30:07;99640.44;;;5.62;100.00
12349;BME280;5974;42.710;27.258;2023-02-04T09:32:35;99643.25;;;6.13;100.00
12349;BME280;5974;42.710;27.258;2023-02-04T09:35:02;99630.91;;;5.93;100.00
12349;BME280;5974;42.710;27.258;2023-02-04T09:37:29;99638.59;;;7.53;100.00
12349;BME280;5974;42.710;27.258;2023-02-04T09:39:56;99629.44;;;6.40;100.00
12349;BME280;5974;42.710;27.258;2023-02-04T09:42:24;99623.31;;;6.69;100.00
12349;BME280;5974;42.710;27.258;2023-02-04T09:44:51;99629.72;;;6.03;100.00
12349;BME280;5974;42.710;27.258;2023-02-04T09:47:21;99616.50;;;6.65;100.00
12349;BME280;5974;42.710;27.258;2023-02-04T09:49:51;99612.94;;;5.87;100.00
12349;BME280;5974;42.710;27.258;2023-02-04T09:52:18;99604.72;;;6.81;100.00
12349;BME280;5974;42.710;27.258;2023-02-04T09:54:45;99607.56;;;6.47;100.00
12349;BME280;5974;42.710;27.258;2023-02-04T09:57:14;99605.19;;;6.41;100.00
12349;BME280;5974;42.710;27.258;2023-02-04T09:59:43;99598.66;;;6.00;100.00
12349;BME280;5974;42.710;27.258;2023-02-04T10:02:19;99586.72;;;5.96;100.00
12349;BME280;5974;42.710;27.258;2023-02-04T10:04:47;99580.00;;;6.43;100.00
12349;BME280;5974;42.710;27.258;2023-02-04T10:07:17;99579.38;;;6.63;100.00
12349;BME280;5974;42.710;27.258;2023-02-04T10:09:48;99546.94;;;5.95;100.00
12349;BME280;5974;42.710;27.258;2023-02-04T10:12:17;99574.97;;;6.65;100.00
12349;BME280;5974;42.710;27.258;2023-02-04T10:14:44;99568.72;;;6.44;100.00
12349;BME280;5974;42.710;27.258;2023-02-04T10:17:11;99573.38;;;6.61;100.00
12349;BME280;5974;42.710;27.258;2023-02-04T10:19:41;99560.25;;;6.90;100.00
12349;BME280;5974;42.710;27.258;2023-02-04T10:22:16;99552.56;;;6.87;100.00
12349;BME280;5974;42.710;27.258;2023-02-04T10:24:44;99548.19;;;6.89;100.00
12349;BME280;5974;42.710;27.258;2023-02-04T10:27:12;99544.84;;;7.08;100.00
12349;BME280;5974;42.710;27.258;2023-02-04T10:29:42;99543.25;;;7.04;100.00
12349;BME280;5974;42.710;27.258;2023-02-04T10:32:27;99531.84;;;7.78;100.00
12349;BME280;5974;42.710;27.258;2023-02-04T10:34:59;99528.13;;;7.62;100.00
12349;BME280;5974;42.710;27.258;2023-02-04T10:37:27;99537.97;;;6.58;100.00
12349;BME280;5974;42.710;27.258;2023-02-04T10:39:56;99533.97;;;6.22;100.00
12349;BME280;5974;42.710;27.258;2023-02-04T10:42:25;99536.84;;;6.65;100.00
12349;BME280;5974;42.710;27.258;2023-02-04T10:44:52;99535.66;;;6.24;100.00
12349;BME280;5974;42.710;27.258;2023-02-04T10:47:21;99533.97;;;6.22;100.00
12349;BME280;5974;42.710;27.258;2023-02-04T10:49:53;99520.91;;;5.98;100.00
12349;BME280;5974;42.710;27.258;2023-02-04T10:52:21;99533.91;;;5.97;100.00
12349;BME280;5974;42.710;27.258;2023-02-04T10:54:51;99535.00;;;6.18;100.00
12349;BME280;5974;42.710;27.258;2023-02-04T10:57:21;99534.34;;;6.37;100.00
12349;BME280;5974;42.710;27.258;2023-02-04T10:59:50;99528.38;;;6.34;100.00
12349;BME280;5974;42.710;27.258;2023-02-04T11:02:40;99518.22;;;6.79;100.00
12349;BME280;5974;42.710;27.258;2023-02-04T11:05:14;99523.28;;;7.53;100.00
12349;BME280;5974;42.710;27.258;2023-02-04T11:07:42;99506.16;;;7.69;100.00
12349;BME280;5974;42.710;27.258;2023-02-04T11:10:13;99494.09;;;7.90;100.00
12349;BME280;5974;42.710;27.258;2023-02-04T11:12:42;99481.91;;;7.47;100.00
12349;BME280;5974;42.710;27.258;2023-02-04T11:18:26;99473.38;;;9.09;100.00
12349;BME280;5974;42.710;27.258;2023-02-04T11:20:56;99464.06;;;8.45;100.00
12349;BME280;5974;42.710;27.258;2023-02-04T11:23:32;99455.72;;;8.57;100.00
12349;BME280;5974;42.710;27.258;2023-02-04T11:26:19;99467.84;;;7.51;100.00
12349;BME280;5974;42.710;27.258;2023-02-04T11:29:24;99459.41;;;7.46;100.00
12349;BME280;5974;42.710;27.258;2023-02-04T11:31:57;99467.88;;;7.73;100.00
12349;BME280;5974;42.710;27.258;2023-02-04T11:34:28;99437.50;;;7.73;100.00
12349;BME280;5974;42.710;27.258;2023-02-04T11:37:02;99452.00;;;8.00;100.00
12349;BME280;5974;42.710;27.258;2023-02-04T11:39:33;99443.41;;;7.78;100.00
12349;BME280;5974;42.710;27.258;2023-02-04T11:42:03;99457.00;;;6.95;100.00
12349;BME280;5974;42.710;27.258;2023-02-04T11:44:31;99454.84;;;7.06;100.00
12349;BME280;5974;42.710;27.258;2023-02-04T11:46:59;99454.56;;;8.64;100.00
12349;BME280;5974;42.710;27.258;2023-02-04T11:49:27;99440.16;;;8.35;100.00
12349;BME280;5974;42.710;27.258;2023-02-04T11:52:03;99443.03;;;7.66;100.00
12349;BME280;5974;42.710;27.258;2023-02-04T11:54:33;99452.72;;;7.39;100.00
12349;BME280;5974;42.710;27.258;2023-02-04T11:57:02;99453.03;;;7.31;100.00
12349;BME280;5974;42.710;27.258;2023-02-04T11:59:29;99446.63;;;7.40;100.00
12349;BME280;5974;42.710;27.258;2023-02-04T12:02:13;99452.13;;;7.32;100.00
12349;BME280;5974;42.710;27.258;2023-02-04T12:04:50;99450.81;;;7.44;100.00
12349;BME280;5974;42.710;27.258;2023-02-04T12:07:20;99446.28;;;8.12;100.00
12349;BME280;5974;42.710;27.258;2023-02-04T12:09:49;99445.22;;;8.18;100.00
12349;BME280;5974;42.710;27.258;2023-02-04T12:12:24;99444.53;;;7.71;100.00
12349;BME280;5974;42.710;27.258;2023-02-04T12:15:03;99450.63;;;7.03;100.00
12349;BME280;5974;42.710;27.258;2023-02-04T12:17:34;99464.44;;;6.81;100.00
12349;BME280;5974;42.710;27.258;2023-02-04T12:20:01;99473.97;;;6.80;100.00
12349;BME280;5974;42.710;27.258;2023-02-04T12:22:28;99467.41;;;6.21;100.00
12349;BME280;5974;42.710;27.258;2023-02-04T12:24:55;99483.94;;;6.18;100.00
12349;BME280;5974;42.710;27.258;2023-02-04T12:27:23;99492.97;;;6.07;100.00
12349;BME280;5974;42.710;27.258;2023-02-04T12:29:50;99484.41;;;6.03;100.00
12349;BME280;5974;42.710;27.258;2023-02-04T12:32:17;99488.22;;;6.45;100.00
12349;BME280;5974;42.710;27.258;2023-02-04T12:34:43;99495.91;;;5.68;100.00
12349;BME280;5974;42.710;27.258;2023-02-04T12:37:10;99491.88;;;6.14;100.00
12349;BME280;5974;42.710;27.258;2023-02-04T12:39:37;99487.00;;;6.03;100.00
12349;BME280;5974;42.710;27.258;2023-02-04T12:42:04;99496.03;;;5.64;100.00
12349;BME280;5974;42.710;27.258;2023-02-04T12:44:32;99488.22;;;5.65;100.00
12349;BME280;5974;42.710;27.258;2023-02-04T12:47:00;99495.53;;;5.79;100.00
12349;BME280;5974;42.710;27.258;2023-02-04T12:49:26;99477.34;;;5.80;100.00
12349;BME280;5974;42.710;27.258;2023-02-04T12:51:53;99495.94;;;5.94;100.00
12349;BME280;5974;42.710;27.258;2023-02-04T12:54:23;99498.53;;;5.94;100.00
12349;BME280;5974;42.710;27.258;2023-02-04T12:56:50;99502.72;;;6.25;100.00
12349;BME280;5974;42.710;27.258;2023-02-04T12:59:17;99494.53;;;6.37;100.00
12349;BME280;5974;42.710;27.258;2023-02-04T13:01:46;99502.41;;;6.35;100.00
12349;BME280;5974;42.710;27.258;2023-02-04T13:04:12;99490.84;;;6.44;100.00
12349;BME280;5974;42.710;27.258;2023-02-04T13:06:39;99491.41;;;6.77;100.00